sensor_id;sensor_type;location;lat;lon;timestamp;P1;durP1;ratioP1;P2;durP2;ratioP2
5129;SDS011;2583;50.946;6.954;2022-09-28T00:00:42;1.90;;;1.30;;
5129;SDS011;2583;50.946;6.954;2022-09-28T00:03:12;3.77;;;1.50;;
5129;SDS011;2583;50.946;6.954;2022-09-28T00:05:39;1.20;;;0.93;;
5129;SDS011;2583;50.946;6.954;2022-09-28T00:08:05;1.73;;;1.07;;
5129;SDS011;2583;50.946;6.954;2022-09-28T00:10:33;2.47;;;1.23;;
5129;SDS011;2583;50.946;6.954;2022-09-28T00:13:00;1.27;;;0.80;;
5129;SDS011;2583;50.946;6.954;2022-09-28T00:15:26;1.33;;;0.80;;
5129;SDS011;2583;50.946;6.954;2022-09-28T00:17:54;2.03;;;1.33;;
5129;SDS011;2583;50.946;6.954;2022-09-28T00:20:21;1.50;;;0.90;;
5129;SDS011;2583;50.946;6.954;2022-09-28T00:22:47;2.00;;;0.90;;
5129;SDS011;2583;50.946;6.954;2022-09-28T00:25:14;1.50;;;0.83;;
5129;SDS011;2583;50.946;6.954;2022-09-28T00:27:42;1.60;;;0.60;;
5129;SDS011;2583;50.946;6.954;2022-09-28T00:30:14;1.60;;;0.70;;
5129;SDS011;2583;50.946;6.954;2022-09-28T00:32:41;1.33;;;0.80;;
5129;SDS011;2583;50.946;6.954;2022-09-28T00:35:08;1.20;;;0.70;;
5129;SDS011;2583;50.946;6.954;2022-09-28T00:37:35;2.20;;;0.63;;
5129;SDS011;2583;50.946;6.954;2022-09-28T00:40:02;3.00;;;0.83;;
5129;SDS011;2583;50.946;6.954;2022-09-28T00:42:29;1.27;;;0.60;;
5129;SDS011;2583;50.946;6.954;2022-09-28T00:44:56;1.30;;;0.87;;
5129;SDS011;2583;50.946;6.954;2022-09-28T00:52:48;1.50;;;0.90;;
5129;SDS011;2583;50.946;6.954;2022-09-28T00:56:05;5.13;;;0.67;;
5129;SDS011;2583;50.946;6.954;2022-09-28T00:58:20;2.20;;;0.90;;
5129;SDS011;2583;50.946;6.954;2022-09-28T01:00:55;2.37;;;0.70;;
5129;SDS011;2583;50.946;6.954;2022-09-28T01:03:24;1.57;;;0.70;;
5129;SDS011;2583;50.946;6.954;2022-09-28T01:05:51;1.40;;;1.00;;
5129;SDS011;2583;50.946;6.954;2022-09-28T01:08:20;2.13;;;0.87;;
5129;SDS011;2583;50.946;6.954;2022-09-28T01:10:49;2.50;;;0.87;;
5129;SDS011;2583;50.946;6.954;2022-09-28T01:13:16;1.47;;;1.20;;
5129;SDS011;2583;50.946;6.954;2022-09-28T01:15:48;2.07;;;0.73;;
5129;SDS011;2583;50.946;6.954;2022-09-28T01:18:40;2.83;;;0.80;;
5129;SDS011;2583;50.946;6.954;2022-09-28T01:21:16;2.50;;;0.77;;
5129;SDS011;2583;50.946;6.954;2022-09-28T01:26:46;2.50;;;0.70;;
5129;SDS011;2583;50.946;6.954;2022-09-28T01:29:30;1.47;;;0.80;;
5129;SDS011;2583;50.946;6.954;2022-09-28T01:37:55;2.20;;;1.00;;
5129;SDS011;2583;50.946;6.954;2022-09-28T01:40:28;2.77;;;1.10;;
5129;SDS011;2583;50.946;6.954;2022-09-28T01:42:58;1.30;;;0.87;;
5129;SDS011;2583;50.946;6.954;2022-09-28T01:45:31;2.17;;;0.80;;
5129;SDS011;2583;50.946;6.954;2022-09-28T01:48:04;1.93;;;0.87;;
5129;SDS011;2583;50.946;6.954;2022-09-28T01:50:37;3.63;;;0.93;;
5129;SDS011;2583;50.946;6.954;2022-09-28T01:53:11;1.90;;;0.80;;
5129;SDS011;2583;50.946;6.954;2022-09-28T01:55:49;3.50;;;0.90;;
5129;SDS011;2583;50.946;6.954;2022-09-28T01:58:26;1.50;;;1.00;;
5129;SDS011;2583;50.946;6.954;2022-09-28T02:01:07;3.90;;;1.10;;
5129;SDS011;2583;50.946;6.954;2022-09-28T02:06:31;5.00;;;0.97;;
5129;SDS011;2583;50.946;6.954;2022-09-28T02:09:07;3.70;;;1.20;;
5129;SDS011;2583;50.946;6.954;2022-09-28T02:11:40;2.73;;;1.00;;
5129;SDS011;2583;50.946;6.954;2022-09-28T02:14:11;1.97;;;1.40;;
5129;SDS011;2583;50.946;6.954;2022-09-28T02:16:43;3.67;;;0.90;;
5129;SDS011;2583;50.946;6.954;2022-09-28T02:19:20;2.70;;;1.20;;
5129;SDS011;2583;50.946;6.954;2022-09-28T02:21:53;4.03;;;1.10;;
5129;SDS011;2583;50.946;6.954;2022-09-28T02:27:39;3.60;;;1.43;;
5129;SDS011;2583;50.946;6.954;2022-09-28T02:30:10;3.20;;;1.47;;
5129;SDS011;2583;50.946;6.954;2022-09-28T02:32:38;4.40;;;2.00;;
5129;SDS011;2583;50.946;6.954;2022-09-28T02:35:13;1.97;;;1.27;;
5129;SDS011;2583;50.946;6.954;2022-09-28T02:37:42;2.90;;;1.50;;
5129;SDS011;2583;50.946;6.954;2022-09-28T02:40:27;5.77;;;2.37;;
5129;SDS011;2583;50.946;6.954;2022-09-28T02:45:52;6.20;;;3.10;;
5129;SDS011;2583;50.946;6.954;2022-09-28T02:48:30;2.67;;;2.47;;
5129;SDS011;2583;50.946;6.954;2022-09-28T02:59:24;5.63;;;3.50;;
5129;SDS011;2583;50.946;6.954;2022-09-28T03:02:00;11.00;;;4.00;;
5129;SDS011;2583;50.946;6.954;2022-09-28T03:04:40;4.20;;;3.43;;
5129;SDS011;2583;50.946;6.954;2022-09-28T03:10:00;4.63;;;4.23;;
5129;SDS011;2583;50.946;6.954;2022-09-28T03:12:39;4.50;;;4.10;;
5129;SDS011;2583;50.946;6.954;2022-09-28T03:15:09;5.17;;;4.67;;
5129;SDS011;2583;50.946;6.954;2022-09-28T03:17:36;8.10;;;4.40;;
5129;SDS011;2583;50.946;6.954;2022-09-28T03:20:03;7.43;;;4.50;;
5129;SDS011;2583;50.946;6.954;2022-09-28T03:22:30;5.10;;;4.70;;
5129;SDS011;2583;50.946;6.954;2022-09-28T03:24:57;5.23;;;4.93;;
5129;SDS011;2583;50.946;6.954;2022-09-28T03:27:24;5.33;;;4.60;;
5129;SDS011;2583;50.946;6.954;2022-09-28T03:29:50;5.80;;;5.30;;
5129;SDS011;2583;50.946;6.954;2022-09-28T03:32:17;6.90;;;6.20;;
5129;SDS011;2583;50.946;6.954;2022-09-28T03:34:44;6.60;;;6.03;;
5129;SDS011;2583;50.946;6.954;2022-09-28T03:37:10;6.70;;;6.00;;
5129;SDS011;2583;50.946;6.954;2022-09-28T03:39:37;7.07;;;6.47;;
5129;SDS011;2583;50.946;6.954;2022-09-28T03:42:04;7.47;;;6.60;;
5129;SDS011;2583;50.946;6.954;2022-09-28T03:44:31;7.70;;;7.20;;
5129;SDS011;2583;50.946;6.954;2022-09-28T03:46:58;7.40;;;6.90;;
5129;SDS011;2583;50.946;6.954;2022-09-28T03:49:25;8.00;;;7.33;;
5129;SDS011;2583;50.946;6.954;2022-09-28T03:51:52;7.30;;;6.80;;
5129;SDS011;2583;50.946;6.954;2022-09-28T03:54:18;8.70;;;7.93;;
5129;SDS011;2583;50.946;6.954;2022-09-28T03:56:45;9.10;;;7.77;;
5129;SDS011;2583;50.946;6.954;2022-09-28T03:59:12;8.67;;;7.87;;
5129;SDS011;2583;50.946;6.954;2022-09-28T04:01:39;8.20;;;7.33;;
5129;SDS011;2583;50.946;6.954;2022-09-28T04:04:06;9.13;;;7.50;;
5129;SDS011;2583;50.946;6.954;2022-09-28T04:06:32;8.70;;;7.90;;
5129;SDS011;2583;50.946;6.954;2022-09-28T04:08:59;17.00;;;7.87;;
5129;SDS011;2583;50.946;6.954;2022-09-28T04:11:26;8.20;;;7.50;;
5129;SDS011;2583;50.946;6.954;2022-09-28T04:14:09;9.07;;;7.53;;
5129;SDS011;2583;50.946;6.954;2022-09-28T04:16:36;9.10;;;8.33;;
5129;SDS011;2583;50.946;6.954;2022-09-28T04:19:03;8.90;;;8.10;;
5129;SDS011;2583;50.946;6.954;2022-09-28T04:21:30;9.70;;;8.90;;
5129;SDS011;2583;50.946;6.954;2022-09-28T04:23:57;9.73;;;8.77;;
5129;SDS011;2583;50.946;6.954;2022-09-28T04:26:25;14.37;;;11.60;;
5129;SDS011;2583;50.946;6.954;2022-09-28T04:28:52;11.17;;;10.20;;
5129;SDS011;2583;50.946;6.954;2022-09-28T04:31:38;10.97;;;10.03;;
5129;SDS011;2583;50.946;6.954;2022-09-28T04:34:14;10.17;;;9.23;;
5129;SDS011;2583;50.946;6.954;2022-09-28T04:36:43;10.40;;;9.60;;
5129;SDS011;2583;50.946;6.954;2022-09-28T04:39:11;11.03;;;10.23;;
5129;SDS011;2583;50.946;6.954;2022-09-28T04:41:39;11.70;;;10.53;;
5129;SDS011;2583;50.946;6.954;2022-09-28T04:44:07;12.50;;;10.13;;
5129;SDS011;2583;50.946;6.954;2022-09-28T04:46:34;10.20;;;9.40;;
5129;SDS011;2583;50.946;6.954;2022-09-28T04:49:01;11.43;;;10.30;;
5129;SDS011;2583;50.946;6.954;2022-09-28T04:51:31;10.90;;;10.00;;
5129;SDS011;2583;50.946;6.954;2022-09-28T04:53:58;13.03;;;10.30;;
5129;SDS011;2583;50.946;6.954;2022-09-28T04:56:25;11.00;;;10.00;;
5129;SDS011;2583;50.946;6.954;2022-09-28T04:58:52;11.23;;;9.77;;
5129;SDS011;2583;50.946;6.954;2022-09-28T05:01:19;10.67;;;9.80;;
5129;SDS011;2583;50.946;6.954;2022-09-28T05:03:49;10.83;;;9.77;;
5129;SDS011;2583;50.946;6.954;2022-09-28T05:06:19;19.37;;;12.27;;
5129;SDS011;2583;50.946;6.954;2022-09-28T05:08:47;13.17;;;9.73;;
5129;SDS011;2583;50.946;6.954;2022-09-28T05:11:17;12.00;;;9.33;;
5129;SDS011;2583;50.946;6.954;2022-09-28T05:13:44;13.27;;;9.43;;
5129;SDS011;2583;50.946;6.954;2022-09-28T05:16:13;10.47;;;9.60;;
5129;SDS011;2583;50.946;6.954;2022-09-28T05:18:41;9.00;;;8.50;;
5129;SDS011;2583;50.946;6.954;2022-09-28T05:21:09;14.13;;;9.63;;
5129;SDS011;2583;50.946;6.954;2022-09-28T05:23:38;10.47;;;9.30;;
5129;SDS011;2583;50.946;6.954;2022-09-28T05:26:05;9.10;;;8.40;;
5129;SDS011;2583;50.946;6.954;2022-09-28T05:28:32;9.07;;;8.43;;
5129;SDS011;2583;50.946;6.954;2022-09-28T05:30:59;8.87;;;8.07;;
5129;SDS011;2583;50.946;6.954;2022-09-28T05:33:27;9.50;;;7.93;;
5129;SDS011;2583;50.946;6.954;2022-09-28T05:35:54;7.60;;;6.90;;
5129;SDS011;2583;50.946;6.954;2022-09-28T05:38:26;9.27;;;8.47;;
5129;SDS011;2583;50.946;6.954;2022-09-28T05:40:53;8.73;;;8.03;;
5129;SDS011;2583;50.946;6.954;2022-09-28T05:43:21;9.47;;;8.37;;
5129;SDS011;2583;50.946;6.954;2022-09-28T05:45:48;8.17;;;7.57;;
5129;SDS011;2583;50.946;6.954;2022-09-28T05:48:20;9.53;;;8.33;;
5129;SDS011;2583;50.946;6.954;2022-09-28T05:50:50;8.83;;;8.03;;
5129;SDS011;2583;50.946;6.954;2022-09-28T05:53:18;8.00;;;7.20;;
5129;SDS011;2583;50.946;6.954;2022-09-28T05:55:45;8.27;;;7.47;;
5129;SDS011;2583;50.946;6.954;2022-09-28T05:58:11;7.80;;;7.00;;
5129;SDS011;2583;50.946;6.954;2022-09-28T06:00:38;7.67;;;6.70;;
5129;SDS011;2583;50.946;6.954;2022-09-28T06:03:07;7.90;;;7.27;;
5129;SDS011;2583;50.946;6.954;2022-09-28T06:05:37;10.23;;;6.70;;
5129;SDS011;2583;50.946;6.954;2022-09-28T06:08:07;7.50;;;6.90;;
5129;SDS011;2583;50.946;6.954;2022-09-28T06:10:38;6.60;;;6.10;;
5129;SDS011;2583;50.946;6.954;2022-09-28T06:13:05;6.87;;;6.30;;
5129;SDS011;2583;50.946;6.954;2022-09-28T06:15:34;7.00;;;6.50;;
5129;SDS011;2583;50.946;6.954;2022-09-28T06:18:05;6.57;;;5.97;;
5129;SDS011;2583;50.946;6.954;2022-09-28T06:20:36;6.27;;;5.87;;
5129;SDS011;2583;50.946;6.954;2022-09-28T06:23:06;6.50;;;5.70;;
5129;SDS011;2583;50.946;6.954;2022-09-28T06:25:37;5.97;;;5.50;;
5129;SDS011;2583;50.946;6.954;2022-09-28T06:28:06;6.60;;;5.60;;
5129;SDS011;2583;50.946;6.954;2022-09-28T06:30:37;6.97;;;6.43;;
5129;SDS011;2583;50.946;6.954;2022-09-28T06:33:05;7.10;;;6.50;;
5129;SDS011;2583;50.946;6.954;2022-09-28T06:35:33;8.00;;;6.30;;
5129;SDS011;2583;50.946;6.954;2022-09-28T06:38:00;6.73;;;6.23;;
5129;SDS011;2583;50.946;6.954;2022-09-28T06:40:27;8.30;;;5.80;;
5129;SDS011;2583;50.946;6.954;2022-09-28T06:43:01;6.30;;;5.70;;
5129;SDS011;2583;50.946;6.954;2022-09-28T06:45:36;6.40;;;5.90;;
5129;SDS011;2583;50.946;6.954;2022-09-28T06:48:04;5.90;;;5.27;;
5129;SDS011;2583;50.946;6.954;2022-09-28T06:50:33;6.10;;;5.53;;
5129;SDS011;2583;50.946;6.954;2022-09-28T06:53:05;6.57;;;5.63;;
5129;SDS011;2583;50.946;6.954;2022-09-28T06:55:37;5.83;;;5.43;;
5129;SDS011;2583;50.946;6.954;2022-09-28T06:58:05;7.33;;;6.70;;
5129;SDS011;2583;50.946;6.954;2022-09-28T07:00:35;5.80;;;5.27;;
5129;SDS011;2583;50.946;6.954;2022-09-28T07:03:05;6.13;;;5.70;;
5129;SDS011;2583;50.946;6.954;2022-09-28T07:05:43;5.40;;;4.93;;
5129;SDS011;2583;50.946;6.954;2022-09-28T07:08:15;6.23;;;5.47;;
5129;SDS011;2583;50.946;6.954;2022-09-28T07:10:43;5.83;;;4.80;;
5129;SDS011;2583;50.946;6.954;2022-09-28T07:13:11;5.37;;;4.87;;
5129;SDS011;2583;50.946;6.954;2022-09-28T07:15:58;5.87;;;4.90;;
5129;SDS011;2583;50.946;6.954;2022-09-28T07:18:25;4.57;;;4.27;;
5129;SDS011;2583;50.946;6.954;2022-09-28T07:20:54;4.60;;;4.30;;
5129;SDS011;2583;50.946;6.954;2022-09-28T07:23:24;5.53;;;5.13;;
5129;SDS011;2583;50.946;6.954;2022-09-28T07:25:56;5.10;;;4.60;;
5129;SDS011;2583;50.946;6.954;2022-09-28T07:28:23;4.33;;;3.93;;
5129;SDS011;2583;50.946;6.954;2022-09-28T07:30:50;7.53;;;5.63;;
5129;SDS011;2583;50.946;6.954;2022-09-28T07:33:17;4.47;;;4.17;;
5129;SDS011;2583;50.946;6.954;2022-09-28T07:35:53;3.63;;;3.30;;
5129;SDS011;2583;50.946;6.954;2022-09-28T07:38:21;10.77;;;4.20;;
5129;SDS011;2583;50.946;6.954;2022-09-28T07:40:48;5.50;;;3.67;;
5129;SDS011;2583;50.946;6.954;2022-09-28T07:43:34;5.50;;;3.60;;
5129;SDS011;2583;50.946;6.954;2022-09-28T07:46:01;4.33;;;3.93;;
5129;SDS011;2583;50.946;6.954;2022-09-28T07:48:28;3.90;;;3.00;;
5129;SDS011;2583;50.946;6.954;2022-09-28T07:51:02;4.47;;;4.03;;
5129;SDS011;2583;50.946;6.954;2022-09-28T07:53:30;4.00;;;3.70;;
5129;SDS011;2583;50.946;6.954;2022-09-28T07:55:57;4.17;;;3.50;;
5129;SDS011;2583;50.946;6.954;2022-09-28T07:58:35;3.37;;;3.07;;
5129;SDS011;2583;50.946;6.954;2022-09-28T08:01:05;4.53;;;3.50;;
5129;SDS011;2583;50.946;6.954;2022-09-28T08:03:37;5.30;;;3.33;;
5129;SDS011;2583;50.946;6.954;2022-09-28T08:06:05;6.27;;;3.83;;
5129;SDS011;2583;50.946;6.954;2022-09-28T08:08:37;3.70;;;3.40;;
5129;SDS011;2583;50.946;6.954;2022-09-28T08:11:10;4.00;;;3.70;;
5129;SDS011;2583;50.946;6.954;2022-09-28T08:13:38;4.13;;;3.30;;
5129;SDS011;2583;50.946;6.954;2022-09-28T08:16:06;6.27;;;4.13;;
5129;SDS011;2583;50.946;6.954;2022-09-28T08:18:34;5.13;;;3.53;;
5129;SDS011;2583;50.946;6.954;2022-09-28T08:21:02;4.10;;;3.80;;
5129;SDS011;2583;50.946;6.954;2022-09-28T08:23:49;3.77;;;3.47;;
5129;SDS011;2583;50.946;6.954;2022-09-28T08:26:17;3.93;;;3.50;;
5129;SDS011;2583;50.946;6.954;2022-09-28T08:28:44;4.87;;;3.33;;
5129;SDS011;2583;50.946;6.954;2022-09-28T08:31:13;4.67;;;4.10;;
5129;SDS011;2583;50.946;6.954;2022-09-28T08:33:40;4.50;;;4.10;;
5129;SDS011;2583;50.946;6.954;2022-09-28T08:36:08;6.93;;;3.30;;
5129;SDS011;2583;50.946;6.954;2022-09-28T08:38:36;4.00;;;3.60;;
5129;SDS011;2583;50.946;6.954;2022-09-28T08:41:16;4.50;;;2.67;;
5129;SDS011;2583;50.946;6.954;2022-09-28T08:44:13;13.00;;;5.00;;
5129;SDS011;2583;50.946;6.954;2022-09-28T08:46:57;5.00;;;3.80;;
5129;SDS011;2583;50.946;6.954;2022-09-28T08:49:34;3.23;;;2.93;;
5129;SDS011;2583;50.946;6.954;2022-09-28T08:52:10;3.30;;;3.00;;
5129;SDS011;2583;50.946;6.954;2022-09-28T08:55:10;4.80;;;2.93;;
5129;SDS011;2583;50.946;6.954;2022-09-28T08:58:09;4.53;;;2.90;;
5129;SDS011;2583;50.946;6.954;2022-09-28T09:00:47;3.30;;;2.80;;
5129;SDS011;2583;50.946;6.954;2022-09-28T09:03:35;7.13;;;3.07;;
5129;SDS011;2583;50.946;6.954;2022-09-28T09:09:02;3.37;;;1.90;;
5129;SDS011;2583;50.946;6.954;2022-09-28T09:11:56;4.10;;;2.00;;
5129;SDS011;2583;50.946;6.954;2022-09-28T09:15:20;3.47;;;2.03;;
5129;SDS011;2583;50.946;6.954;2022-09-28T09:20:24;2.63;;;2.00;;
5129;SDS011;2583;50.946;6.954;2022-09-28T09:22:58;4.07;;;2.03;;
5129;SDS011;2583;50.946;6.954;2022-09-28T09:25:28;4.60;;;1.80;;
5129;SDS011;2583;50.946;6.954;2022-09-28T09:47:32;2.33;;;1.50;;
5129;SDS011;2583;50.946;6.954;2022-09-28T09:50:16;3.53;;;1.50;;
5129;SDS011;2583;50.946;6.954;2022-09-28T09:53:02;3.27;;;1.40;;
5129;SDS011;2583;50.946;6.954;2022-09-28T09:55:47;3.27;;;1.40;;
5129;SDS011;2583;50.946;6.954;2022-09-28T09:58:40;3.20;;;1.40;;
5129;SDS011;2583;50.946;6.954;2022-09-28T10:01:12;5.63;;;3.07;;
5129;SDS011;2583;50.946;6.954;2022-09-28T10:03:44;5.57;;;1.27;;
5129;SDS011;2583;50.946;6.954;2022-09-28T10:08:45;3.73;;;3.37;;
5129;SDS011;2583;50.946;6.954;2022-09-28T10:11:20;4.60;;;1.10;;
5129;SDS011;2583;50.946;6.954;2022-09-28T10:13:54;3.23;;;1.00;;
5129;SDS011;2583;50.946;6.954;2022-09-28T10:16:23;2.90;;;1.10;;
5129;SDS011;2583;50.946;6.954;2022-09-28T10:18:50;2.70;;;1.00;;
5129;SDS011;2583;50.946;6.954;2022-09-28T10:21:19;2.83;;;1.20;;
5129;SDS011;2583;50.946;6.954;2022-09-28T10:23:49;2.50;;;1.20;;
5129;SDS011;2583;50.946;6.954;2022-09-28T10:26:31;1.63;;;1.20;;
5129;SDS011;2583;50.946;6.954;2022-09-28T10:29:14;3.97;;;1.10;;
5129;SDS011;2583;50.946;6.954;2022-09-28T10:31:45;1.73;;;1.10;;
5129;SDS011;2583;50.946;6.954;2022-09-28T10:34:15;1.30;;;1.00;;
5129;SDS011;2583;50.946;6.954;2022-09-28T10:36:49;1.30;;;0.87;;
5129;SDS011;2583;50.946;6.954;2022-09-28T10:39:33;1.70;;;0.83;;
5129;SDS011;2583;50.946;6.954;2022-09-28T10:42:22;1.43;;;0.90;;
5129;SDS011;2583;50.946;6.954;2022-09-28T10:45:03;1.33;;;0.70;;
5129;SDS011;2583;50.946;6.954;2022-09-28T10:47:47;1.30;;;0.80;;
5129;SDS011;2583;50.946;6.954;2022-09-28T10:50:20;1.40;;;1.00;;
5129;SDS011;2583;50.946;6.954;2022-09-28T10:52:51;6.13;;;1.00;;
5129;SDS011;2583;50.946;6.954;2022-09-28T10:55:26;1.70;;;0.90;;
5129;SDS011;2583;50.946;6.954;2022-09-28T10:58:00;2.37;;;1.10;;
5129;SDS011;2583;50.946;6.954;2022-09-28T11:00:49;2.97;;;1.73;;
5129;SDS011;2583;50.946;6.954;2022-09-28T11:05:52;3.43;;;1.33;;
5129;SDS011;2583;50.946;6.954;2022-09-28T11:08:22;1.87;;;1.03;;
5129;SDS011;2583;50.946;6.954;2022-09-28T11:11:06;1.43;;;0.90;;
5129;SDS011;2583;50.946;6.954;2022-09-28T11:13:39;3.70;;;1.10;;
5129;SDS011;2583;50.946;6.954;2022-09-28T11:16:17;6.10;;;1.93;;
5129;SDS011;2583;50.946;6.954;2022-09-28T11:18:52;2.43;;;1.20;;
5129;SDS011;2583;50.946;6.954;2022-09-28T11:21:27;2.00;;;0.63;;
5129;SDS011;2583;50.946;6.954;2022-09-28T11:24:02;2.93;;;1.20;;
5129;SDS011;2583;50.946;6.954;2022-09-28T11:26:35;2.13;;;0.87;;
5129;SDS011;2583;50.946;6.954;2022-09-28T11:29:15;4.70;;;4.20;;
5129;SDS011;2583;50.946;6.954;2022-09-28T11:31:52;4.53;;;1.00;;
5129;SDS011;2583;50.946;6.954;2022-09-28T11:34:33;1.30;;;0.70;;
5129;SDS011;2583;50.946;6.954;2022-09-28T11:39:53;1.30;;;0.67;;
5129;SDS011;2583;50.946;6.954;2022-09-28T11:45:50;2.93;;;0.80;;
5129;SDS011;2583;50.946;6.954;2022-09-28T11:51:17;3.13;;;0.70;;
5129;SDS011;2583;50.946;6.954;2022-09-28T11:53:50;2.20;;;1.03;;
5129;SDS011;2583;50.946;6.954;2022-09-28T11:59:20;2.00;;;1.00;;
5129;SDS011;2583;50.946;6.954;2022-09-28T12:01:58;3.50;;;0.80;;
5129;SDS011;2583;50.946;6.954;2022-09-28T12:04:45;3.93;;;1.00;;
5129;SDS011;2583;50.946;6.954;2022-09-28T12:07:36;1.50;;;0.80;;
5129;SDS011;2583;50.946;6.954;2022-09-28T12:13:15;3.20;;;1.43;;
5129;SDS011;2583;50.946;6.954;2022-09-28T12:15:53;1.87;;;0.83;;
5129;SDS011;2583;50.946;6.954;2022-09-28T12:24:18;1.83;;;0.63;;
5129;SDS011;2583;50.946;6.954;2022-09-28T12:26:59;1.77;;;0.80;;
5129;SDS011;2583;50.946;6.954;2022-09-28T12:29:34;1.90;;;1.10;;
5129;SDS011;2583;50.946;6.954;2022-09-28T12:32:04;2.10;;;0.90;;
5129;SDS011;2583;50.946;6.954;2022-09-28T12:34:54;3.43;;;0.90;;
5129;SDS011;2583;50.946;6.954;2022-09-28T12:37:26;1.93;;;0.70;;
5129;SDS011;2583;50.946;6.954;2022-09-28T12:45:52;1.30;;;0.80;;
5129;SDS011;2583;50.946;6.954;2022-09-28T12:51:50;1.57;;;0.80;;
5129;SDS011;2583;50.946;6.954;2022-09-28T12:59:30;2.20;;;0.80;;
5129;SDS011;2583;50.946;6.954;2022-09-28T13:02:53;2.40;;;1.00;;
5129;SDS011;2583;50.946;6.954;2022-09-28T13:05:13;2.50;;;1.87;;
5129;SDS011;2583;50.946;6.954;2022-09-28T13:25:02;3.63;;;1.00;;
5129;SDS011;2583;50.946;6.954;2022-09-28T13:27:37;2.13;;;1.00;;
5129;SDS011;2583;50.946;6.954;2022-09-28T13:30:11;3.60;;;0.87;;
5129;SDS011;2583;50.946;6.954;2022-09-28T13:32:40;1.73;;;1.13;;
5129;SDS011;2583;50.946;6.954;2022-09-28T13:35:15;1.80;;;0.87;;
5129;SDS011;2583;50.946;6.954;2022-09-28T13:37:46;1.67;;;0.73;;
5129;SDS011;2583;50.946;6.954;2022-09-28T13:49:54;3.47;;;0.90;;
5129;SDS011;2583;50.946;6.954;2022-09-28T13:52:34;2.57;;;1.10;;
5129;SDS011;2583;50.946;6.954;2022-09-28T13:55:25;2.80;;;1.53;;
5129;SDS011;2583;50.946;6.954;2022-09-28T13:58:26;4.20;;;1.17;;
5129;SDS011;2583;50.946;6.954;2022-09-28T14:01:10;2.70;;;1.47;;
5129;SDS011;2583;50.946;6.954;2022-09-28T14:10:18;4.83;;;3.47;;
5129;SDS011;2583;50.946;6.954;2022-09-28T14:12:49;3.53;;;1.50;;
5129;SDS011;2583;50.946;6.954;2022-09-28T14:20:45;2.30;;;0.97;;
5129;SDS011;2583;50.946;6.954;2022-09-28T14:23:27;4.10;;;1.03;;
5129;SDS011;2583;50.946;6.954;2022-09-28T14:29:28;2.80;;;1.07;;
5129;SDS011;2583;50.946;6.954;2022-09-28T14:34:35;2.07;;;1.20;;
5129;SDS011;2583;50.946;6.954;2022-09-28T14:37:27;2.40;;;0.90;;
5129;SDS011;2583;50.946;6.954;2022-09-28T14:43:20;5.40;;;1.23;;
5129;SDS011;2583;50.946;6.954;2022-09-28T14:46:24;3.20;;;0.93;;
5129;SDS011;2583;50.946;6.954;2022-09-28T14:48:47;5.03;;;1.33;;
5129;SDS011;2583;50.946;6.954;2022-09-28T14:53:57;2.23;;;1.30;;
5129;SDS011;2583;50.946;6.954;2022-09-28T14:56:29;4.67;;;1.50;;
5129;SDS011;2583;50.946;6.954;2022-09-28T14:59:04;3.10;;;1.60;;
5129;SDS011;2583;50.946;6.954;2022-09-28T15:01:32;4.47;;;1.60;;
5129;SDS011;2583;50.946;6.954;2022-09-28T15:04:02;1.70;;;1.20;;
5129;SDS011;2583;50.946;6.954;2022-09-28T15:06:47;2.03;;;1.23;;
5129;SDS011;2583;50.946;6.954;2022-09-28T15:09:29;3.37;;;1.73;;
5129;SDS011;2583;50.946;6.954;2022-09-28T15:14:44;1.47;;;0.80;;
5129;SDS011;2583;50.946;6.954;2022-09-28T15:17:16;1.77;;;0.73;;
5129;SDS011;2583;50.946;6.954;2022-09-28T15:22:56;5.57;;;0.80;;
5129;SDS011;2583;50.946;6.954;2022-09-28T15:25:28;1.80;;;1.10;;
5129;SDS011;2583;50.946;6.954;2022-09-28T15:27:57;1.83;;;0.90;;
5129;SDS011;2583;50.946;6.954;2022-09-28T15:30:31;1.40;;;0.90;;
5129;SDS011;2583;50.946;6.954;2022-09-28T15:33:00;0.90;;;0.60;;
5129;SDS011;2583;50.946;6.954;2022-09-28T15:38:27;1.90;;;1.00;;
5129;SDS011;2583;50.946;6.954;2022-09-28T15:40:56;1.80;;;0.87;;
5129;SDS011;2583;50.946;6.954;2022-09-28T15:43:24;1.70;;;1.00;;
5129;SDS011;2583;50.946;6.954;2022-09-28T15:45:58;2.67;;;2.27;;
5129;SDS011;2583;50.946;6.954;2022-09-28T15:48:45;3.90;;;1.73;;
5129;SDS011;2583;50.946;6.954;2022-09-28T15:51:17;4.27;;;3.87;;
5129;SDS011;2583;50.946;6.954;2022-09-28T15:53:53;3.00;;;1.30;;
5129;SDS011;2583;50.946;6.954;2022-09-28T15:56:23;2.47;;;1.50;;
5129;SDS011;2583;50.946;6.954;2022-09-28T15:59:38;4.10;;;1.53;;
5129;SDS011;2583;50.946;6.954;2022-09-28T16:01:42;2.03;;;1.60;;
5129;SDS011;2583;50.946;6.954;2022-09-28T16:12:27;2.07;;;1.30;;
5129;SDS011;2583;50.946;6.954;2022-09-28T16:15:00;1.90;;;1.40;;
5129;SDS011;2583;50.946;6.954;2022-09-28T16:17:31;2.03;;;1.00;;
5129;SDS011;2583;50.946;6.954;2022-09-28T16:20:00;1.70;;;0.90;;
5129;SDS011;2583;50.946;6.954;2022-09-28T16:22:30;3.30;;;2.53;;
5129;SDS011;2583;50.946;6.954;2022-09-28T16:24:59;4.23;;;1.33;;
5129;SDS011;2583;50.946;6.954;2022-09-28T16:27:40;1.70;;;1.40;;
5129;SDS011;2583;50.946;6.954;2022-09-28T16:30:15;3.27;;;1.17;;
5129;SDS011;2583;50.946;6.954;2022-09-28T16:32:50;1.90;;;1.10;;
5129;SDS011;2583;50.946;6.954;2022-09-28T16:35:28;2.30;;;1.20;;
5129;SDS011;2583;50.946;6.954;2022-09-28T16:40:29;5.70;;;3.30;;
5129;SDS011;2583;50.946;6.954;2022-09-28T16:42:59;7.30;;;3.20;;
5129;SDS011;2583;50.946;6.954;2022-09-28T16:45:28;2.03;;;1.70;;
5129;SDS011;2583;50.946;6.954;2022-09-28T16:47:58;3.40;;;1.97;;
5129;SDS011;2583;50.946;6.954;2022-09-28T16:50:27;3.10;;;2.03;;
5129;SDS011;2583;50.946;6.954;2022-09-28T16:52:58;5.43;;;3.10;;
5129;SDS011;2583;50.946;6.954;2022-09-28T16:55:54;1.90;;;1.20;;
5129;SDS011;2583;50.946;6.954;2022-09-28T16:58:22;3.10;;;1.67;;
5129;SDS011;2583;50.946;6.954;2022-09-28T17:00:51;1.90;;;1.10;;
5129;SDS011;2583;50.946;6.954;2022-09-28T17:03:20;1.90;;;1.50;;
5129;SDS011;2583;50.946;6.954;2022-09-28T17:05:49;3.00;;;1.10;;
5129;SDS011;2583;50.946;6.954;2022-09-28T17:08:17;3.93;;;1.20;;
5129;SDS011;2583;50.946;6.954;2022-09-28T17:10:51;5.43;;;0.90;;
5129;SDS011;2583;50.946;6.954;2022-09-28T17:13:42;2.40;;;1.17;;
5129;SDS011;2583;50.946;6.954;2022-09-28T17:18:37;2.33;;;1.30;;
5129;SDS011;2583;50.946;6.954;2022-09-28T17:21:05;2.10;;;1.90;;
5129;SDS011;2583;50.946;6.954;2022-09-28T17:23:36;1.87;;;1.10;;
5129;SDS011;2583;50.946;6.954;2022-09-28T17:26:03;2.43;;;1.60;;
5129;SDS011;2583;50.946;6.954;2022-09-28T17:28:31;2.27;;;1.40;;
5129;SDS011;2583;50.946;6.954;2022-09-28T17:31:00;6.60;;;4.20;;
5129;SDS011;2583;50.946;6.954;2022-09-28T17:33:28;15.83;;;7.10;;
5129;SDS011;2583;50.946;6.954;2022-09-28T17:35:58;11.63;;;4.83;;
5129;SDS011;2583;50.946;6.954;2022-09-28T17:38:26;12.30;;;5.60;;
5129;SDS011;2583;50.946;6.954;2022-09-28T17:40:53;4.83;;;2.30;;
5129;SDS011;2583;50.946;6.954;2022-09-28T17:43:20;33.37;;;14.47;;
5129;SDS011;2583;50.946;6.954;2022-09-28T17:45:47;18.53;;;7.90;;
5129;SDS011;2583;50.946;6.954;2022-09-28T17:48:16;7.40;;;4.70;;
5129;SDS011;2583;50.946;6.954;2022-09-28T17:50:48;24.90;;;8.60;;
5129;SDS011;2583;50.946;6.954;2022-09-28T17:53:15;2.40;;;1.87;;
5129;SDS011;2583;50.946;6.954;2022-09-28T17:55:42;2.80;;;1.60;;
5129;SDS011;2583;50.946;6.954;2022-09-28T18:00:44;14.70;;;13.13;;
5129;SDS011;2583;50.946;6.954;2022-09-28T18:03:22;2.43;;;2.00;;
5129;SDS011;2583;50.946;6.954;2022-09-28T18:08:31;2.17;;;1.97;;
5129;SDS011;2583;50.946;6.954;2022-09-28T18:11:02;4.30;;;1.87;;
5129;SDS011;2583;50.946;6.954;2022-09-28T18:13:29;2.60;;;1.57;;
5129;SDS011;2583;50.946;6.954;2022-09-28T18:15:56;2.10;;;1.90;;
5129;SDS011;2583;50.946;6.954;2022-09-28T18:18:23;2.33;;;1.50;;
5129;SDS011;2583;50.946;6.954;2022-09-28T18:20:50;2.33;;;2.13;;
5129;SDS011;2583;50.946;6.954;2022-09-28T18:23:17;2.77;;;2.57;;
5129;SDS011;2583;50.946;6.954;2022-09-28T18:25:45;5.13;;;4.70;;
5129;SDS011;2583;50.946;6.954;2022-09-28T18:28:12;6.23;;;5.73;;
5129;SDS011;2583;50.946;6.954;2022-09-28T18:30:41;4.87;;;4.57;;
5129;SDS011;2583;50.946;6.954;2022-09-28T18:33:09;6.50;;;6.00;;
5129;SDS011;2583;50.946;6.954;2022-09-28T18:35:37;5.23;;;4.30;;
5129;SDS011;2583;50.946;6.954;2022-09-28T18:38:04;7.00;;;4.10;;
5129;SDS011;2583;50.946;6.954;2022-09-28T18:40:32;4.10;;;3.80;;
5129;SDS011;2583;50.946;6.954;2022-09-28T18:43:00;3.30;;;3.00;;